createdAt,value
2018-06-27T00:00:53.005Z,32.80
2018-06-27T00:01:56.333Z,32.80
2018-06-27T00:02:59.954Z,32.70
2018-06-27T00:04:03.430Z,32.80
2018-06-27T00:05:06.898Z,32.80
2018-06-27T00:06:10.313Z,32.80
2018-06-27T00:07:13.671Z,32.60
2018-06-27T00:08:17.042Z,32.70
2018-06-27T00:09:20.540Z,32.70
2018-06-27T00:10:23.951Z,32.70
2018-06-27T00:11:27.363Z,32.60
2018-06-27T00:12:30.874Z,32.70
2018-06-27T00:13:34.317Z,32.60
2018-06-27T00:14:37.851Z,32.60
2018-06-27T00:15:41.253Z,32.60
2018-06-27T00:16:44.765Z,32.60
2018-06-27T00:17:48.146Z,32.60
2018-06-27T00:18:51.475Z,32.60
2018-06-27T00:19:55.068Z,32.70
2018-06-27T00:20:58.526Z,32.70
2018-06-27T00:22:02.045Z,32.70
2018-06-27T00:23:05.554Z,32.70
2018-06-27T00:24:08.893Z,32.60
2018-06-27T00:25:12.533Z,32.70
2018-06-27T00:26:15.861Z,32.60
2018-06-27T00:27:19.262Z,32.60
2018-06-27T00:28:22.669Z,32.60
2018-06-27T00:29:25.998Z,32.60
2018-06-27T00:30:29.569Z,32.60
2018-06-27T00:31:33.170Z,33.30
2018-06-27T00:32:36.639Z,32.50
2018-06-27T00:33:40.115Z,32.60
2018-06-27T00:34:43.554Z,32.60
2018-06-27T00:35:47.030Z,32.60
2018-06-27T00:36:50.346Z,32.60
2018-06-27T00:37:54.071Z,32.50
2018-06-27T00:38:57.432Z,32.60
2018-06-27T00:40:00.913Z,32.60
2018-06-27T00:41:04.370Z,32.50
2018-06-27T00:42:07.918Z,32.50
2018-06-27T00:43:11.987Z,32.50
2018-06-27T00:44:15.457Z,32.50
2018-06-27T00:45:18.816Z,32.60
2018-06-27T00:46:22.152Z,32.50
2018-06-27T00:47:25.521Z,32.50
2018-06-27T00:48:28.850Z,32.50
2018-06-27T00:49:32.313Z,32.50
2018-06-27T00:50:35.712Z,32.50
2018-06-27T00:51:39.262Z,32.60
2018-06-27T00:52:42.746Z,32.50
2018-06-27T00:53:51.600Z,32.60
2018-06-27T00:54:55.097Z,32.70
2018-06-27T00:55:58.467Z,32.70
2018-06-27T00:57:01.805Z,32.70
2018-06-27T00:58:05.488Z,32.80
2018-06-27T00:59:09.281Z,32.80
2018-06-27T01:00:12.674Z,32.80
2018-06-27T01:01:16.029Z,32.80
2018-06-27T01:02:19.490Z,32.70
2018-06-27T01:03:22.845Z,32.60
2018-06-27T01:04:26.148Z,32.70
2018-06-27T01:05:29.881Z,32.70
2018-06-27T01:06:33.229Z,32.80
2018-06-27T01:07:36.554Z,32.80
2018-06-27T01:08:40.245Z,32.80
2018-06-27T01:09:43.692Z,32.80
2018-06-27T01:10:47.097Z,32.80
2018-06-27T01:11:50.565Z,32.80
2018-06-27T01:12:53.873Z,32.90
2018-06-27T01:13:57.206Z,33.10
2018-06-27T01:15:00.610Z,32.70
2018-06-27T01:16:04.092Z,32.80
2018-06-27T01:17:07.526Z,32.80
2018-06-27T01:18:10.900Z,32.90
2018-06-27T01:19:14.485Z,32.80
2018-06-27T01:20:17.868Z,32.90
2018-06-27T01:21:21.198Z,32.90
2018-06-27T01:22:24.572Z,33.00
2018-06-27T01:23:27.881Z,32.90
2018-06-27T01:24:31.203Z,33.00
2018-06-27T01:25:34.590Z,32.90
2018-06-27T01:26:37.978Z,32.90
2018-06-27T01:27:41.340Z,33.00
2018-06-27T01:28:44.729Z,32.90
2018-06-27T01:29:48.241Z,32.80
2018-06-27T01:30:51.752Z,33.00
2018-06-27T01:31:55.270Z,33.00
2018-06-27T01:32:58.740Z,33.00
2018-06-27T01:34:02.217Z,32.90
2018-06-27T01:35:05.613Z,33.00
2018-06-27T01:36:09.001Z,33.90
2018-06-27T01:37:12.390Z,33.20
2018-06-27T01:38:15.879Z,33.10
2018-06-27T01:39:19.226Z,33.10
2018-06-27T01:40:22.650Z,33.10
2018-06-27T01:41:25.985Z,33.00
2018-06-27T01:42:29.429Z,33.00
2018-06-27T01:43:32.860Z,32.90
2018-06-27T01:44:36.200Z,32.90
2018-06-27T01:45:39.521Z,33.00
2018-06-27T01:46:43.184Z,33.00
2018-06-27T01:47:46.528Z,33.00
2018-06-27T01:48:49.917Z,33.00
2018-06-27T01:49:53.408Z,33.00
2018-06-27T01:50:56.910Z,33.00
2018-06-27T01:52:00.397Z,32.90
2018-06-27T01:53:03.837Z,33.00
2018-06-27T01:54:07.181Z,33.00
2018-06-27T01:55:10.661Z,33.60
2018-06-27T01:56:14.037Z,33.00
2018-06-27T01:57:17.481Z,33.10
2018-06-27T01:58:20.789Z,33.10
2018-06-27T01:59:24.138Z,33.20
2018-06-27T02:00:27.541Z,33.10
2018-06-27T02:01:31.012Z,33.10
2018-06-27T02:02:34.753Z,33.20
2018-06-27T02:03:38.173Z,33.20
2018-06-27T02:04:41.594Z,33.20
2018-06-27T02:05:44.967Z,33.20
2018-06-27T02:06:48.365Z,33.20
2018-06-27T02:07:51.711Z,33.40
2018-06-27T02:08:55.061Z,33.30
2018-06-27T02:09:58.468Z,33.20
2018-06-27T02:11:01.829Z,33.20
2018-06-27T02:12:05.209Z,33.20
2018-06-27T02:13:09.189Z,33.20
2018-06-27T02:14:12.584Z,33.20
2018-06-27T02:15:16.064Z,33.10
2018-06-27T02:16:19.545Z,33.20
2018-06-27T02:17:22.882Z,33.20
2018-06-27T02:18:26.329Z,33.20
2018-06-27T02:19:29.752Z,33.20
2018-06-27T02:20:33.194Z,33.10
2018-06-27T02:21:36.596Z,33.20
2018-06-27T02:22:39.945Z,33.20
2018-06-27T02:23:43.463Z,33.30
2018-06-27T02:24:46.844Z,33.20
2018-06-27T02:25:50.364Z,33.30
2018-06-27T02:27:57.089Z,33.30
2018-06-27T02:29:00.536Z,33.30
2018-06-27T02:30:04.177Z,33.20
2018-06-27T02:31:07.705Z,33.30
2018-06-27T02:32:11.282Z,33.30
2018-06-27T02:33:20.266Z,33.20
2018-06-27T02:34:23.648Z,33.20
2018-06-27T02:35:27.164Z,33.20
2018-06-27T02:36:30.542Z,33.20
2018-06-27T02:37:33.924Z,33.90
2018-06-27T02:38:37.424Z,33.30
2018-06-27T02:39:40.836Z,33.20
2018-06-27T02:40:44.397Z,33.30
2018-06-27T02:42:50.975Z,34.10
2018-06-27T02:43:54.784Z,33.40
2018-06-27T02:44:58.160Z,33.50
2018-06-27T02:46:01.533Z,33.60
2018-06-27T02:47:05.233Z,33.40
2018-06-27T02:48:08.828Z,33.60
2018-06-27T02:51:18.296Z,33.60
2018-06-27T02:52:21.679Z,33.50
2018-06-27T02:53:24.995Z,33.50
2018-06-27T02:54:28.372Z,33.40
2018-06-27T02:55:31.749Z,33.40
2018-06-27T02:56:35.159Z,33.50
2018-06-27T02:57:38.733Z,33.40
2018-06-27T02:58:42.069Z,33.40
2018-06-27T02:59:45.481Z,33.40
2018-06-27T03:00:48.872Z,33.30
2018-06-27T03:01:52.404Z,33.40
2018-06-27T03:02:55.833Z,33.40
2018-06-27T03:03:59.472Z,33.40
2018-06-27T03:05:03.029Z,33.40
2018-06-27T03:06:06.620Z,33.40
2018-06-27T03:07:10.090Z,33.30
2018-06-27T03:08:13.432Z,33.30
2018-06-27T03:09:17.000Z,33.40
2018-06-27T03:10:20.379Z,33.30
2018-06-27T03:11:23.843Z,33.30
2018-06-27T03:12:27.317Z,33.30
2018-06-27T03:13:30.700Z,33.40
2018-06-27T03:14:34.145Z,33.30
2018-06-27T03:15:37.601Z,33.40
2018-06-27T03:16:41.234Z,33.40
2018-06-27T03:17:45.300Z,33.50
2018-06-27T03:18:57.968Z,33.60
2018-06-27T03:21:04.630Z,33.70
2018-06-27T03:22:08.038Z,33.60
2018-06-27T03:23:11.410Z,34.40
2018-06-27T03:24:14.805Z,33.60
2018-06-27T03:25:18.133Z,33.60
2018-06-27T03:26:21.474Z,33.60
2018-06-27T03:27:24.859Z,33.40
2018-06-27T03:28:28.208Z,33.40
2018-06-27T03:29:31.660Z,33.30
2018-06-27T03:30:35.123Z,33.20
2018-06-27T03:31:38.641Z,33.60
2018-06-27T03:32:41.996Z,33.40
2018-06-27T03:33:45.452Z,33.30
2018-06-27T03:34:48.801Z,33.50
2018-06-27T03:35:52.145Z,33.30
2018-06-27T03:36:55.468Z,33.20
2018-06-27T03:37:58.876Z,33.30
2018-06-27T03:39:02.506Z,33.20
2018-06-27T03:40:06.281Z,33.10
2018-06-27T03:41:09.676Z,33.20
2018-06-27T03:42:13.209Z,33.10
2018-06-27T03:43:16.660Z,33.10
2018-06-27T03:44:20.075Z,33.10
2018-06-27T03:45:23.466Z,32.80
2018-06-27T03:46:26.769Z,33.10
2018-06-27T03:47:30.170Z,33.00
2018-06-27T03:48:33.592Z,33.00
2018-06-27T03:49:37.016Z,32.90
2018-06-27T03:50:41.401Z,33.00
2018-06-27T03:51:44.765Z,33.00
2018-06-27T03:52:49.023Z,32.90
2018-06-27T03:53:57.485Z,32.50
2018-06-27T03:55:00.879Z,33.00
2018-06-27T03:56:04.408Z,32.90
2018-06-27T03:57:08.210Z,32.90
2018-06-27T03:58:11.640Z,32.80
2018-06-27T03:59:15.141Z,32.90
2018-06-27T04:00:18.652Z,32.80
2018-06-27T04:01:21.969Z,32.80
2018-06-27T04:02:25.610Z,32.70
2018-06-27T04:03:29.006Z,32.70
2018-06-27T04:04:32.309Z,32.70
2018-06-27T04:05:35.724Z,32.70
2018-06-27T04:06:39.073Z,32.60
2018-06-27T04:07:42.681Z,32.70
2018-06-27T04:08:46.146Z,32.60
2018-06-27T04:09:49.646Z,32.60
2018-06-27T04:10:52.989Z,32.50
2018-06-27T04:11:56.326Z,32.60
2018-06-27T04:12:59.979Z,32.50
2018-06-27T04:14:03.257Z,32.50
2018-06-27T04:16:10.061Z,32.50
2018-06-27T04:17:13.494Z,33.10
2018-06-27T04:18:16.885Z,32.50
2018-06-27T04:19:20.420Z,32.40
2018-06-27T04:20:23.899Z,32.50
2018-06-27T04:21:27.278Z,32.40
2018-06-27T04:22:35.676Z,32.40
2018-06-27T04:23:39.077Z,32.50
2018-06-27T04:24:42.636Z,32.60
2018-06-27T04:25:46.072Z,32.50
2018-06-27T04:26:49.421Z,32.50
2018-06-27T04:28:56.464Z,32.50
2018-06-27T04:30:01.184Z,32.50
2018-06-27T04:31:04.638Z,32.60
2018-06-27T04:32:08.117Z,32.60
2018-06-27T04:33:11.708Z,32.80
2018-06-27T04:34:15.112Z,32.80
2018-06-27T04:35:18.481Z,32.80
2018-06-27T04:36:21.912Z,32.80
2018-06-27T04:37:25.648Z,32.70
2018-06-27T04:38:28.978Z,32.70
2018-06-27T04:39:32.397Z,32.60
2018-06-27T04:40:35.744Z,32.60
2018-06-27T04:41:39.840Z,32.60
2018-06-27T04:42:43.310Z,32.50
2018-06-27T04:43:46.891Z,32.50
2018-06-27T04:44:50.478Z,32.60
2018-06-27T04:45:54.071Z,32.80
2018-06-27T04:46:57.428Z,32.80
2018-06-27T04:48:00.780Z,32.80
2018-06-27T04:49:04.509Z,32.70
2018-06-27T04:50:07.858Z,32.70
2018-06-27T04:51:11.284Z,32.60
2018-06-27T04:52:14.768Z,33.30
2018-06-27T04:53:18.255Z,32.70
2018-06-27T04:54:21.640Z,32.70
2018-06-27T04:55:25.013Z,32.60
2018-06-27T04:56:28.353Z,32.80
2018-06-27T04:57:31.776Z,32.90
2018-06-27T04:58:35.200Z,32.80
2018-06-27T04:59:38.562Z,32.80
2018-06-27T05:00:41.926Z,32.70
2018-06-27T05:01:45.508Z,32.80
2018-06-27T05:02:48.859Z,32.70
2018-06-27T05:03:52.337Z,32.70
2018-06-27T05:04:55.690Z,32.70
2018-06-27T05:05:59.021Z,32.70
2018-06-27T05:07:02.354Z,32.60
2018-06-27T05:08:05.742Z,32.70
2018-06-27T05:09:10.511Z,32.80
2018-06-27T05:10:13.856Z,32.80
2018-06-27T05:11:17.330Z,32.80
2018-06-27T05:12:20.818Z,32.90
2018-06-27T05:13:24.332Z,32.90
2018-06-27T05:14:27.760Z,32.90
2018-06-27T05:15:31.167Z,32.80
2018-06-27T05:16:34.727Z,32.90
2018-06-27T05:17:38.065Z,33.00
2018-06-27T05:18:41.525Z,33.10
2018-06-27T05:19:44.983Z,33.10
2018-06-27T05:20:48.593Z,33.20
2018-06-27T05:21:51.927Z,33.10
2018-06-27T05:22:55.576Z,33.00
2018-06-27T05:23:58.944Z,33.00
2018-06-27T05:25:02.408Z,33.10
2018-06-27T05:26:05.706Z,33.10
2018-06-27T05:27:09.129Z,33.10
2018-06-27T05:28:12.869Z,33.00
2018-06-27T05:29:16.225Z,33.00
2018-06-27T05:30:19.623Z,33.00
2018-06-27T05:31:23.066Z,33.00
2018-06-27T05:32:26.582Z,33.00
2018-06-27T05:33:30.095Z,33.00
2018-06-27T05:34:33.441Z,33.00
2018-06-27T05:35:36.768Z,33.70
2018-06-27T05:36:40.085Z,33.10
2018-06-27T05:37:43.760Z,33.10
2018-06-27T05:38:47.446Z,33.20
2018-06-27T05:39:50.912Z,33.20
2018-06-27T05:40:54.339Z,33.30
2018-06-27T05:41:57.772Z,32.80
2018-06-27T05:43:01.096Z,33.40
2018-06-27T05:44:04.672Z,33.30
2018-06-27T05:45:08.022Z,33.20
2018-06-27T05:46:11.357Z,33.10
2018-06-27T05:47:14.741Z,33.10
2018-06-27T05:48:18.411Z,33.10
2018-06-27T05:49:21.879Z,33.00
2018-06-27T05:50:25.632Z,33.10
2018-06-27T05:51:29.126Z,33.10
2018-06-27T05:52:32.565Z,33.10
2018-06-27T05:54:39.097Z,32.60
2018-06-27T05:55:42.493Z,33.10
2018-06-27T05:56:45.827Z,33.10
2018-06-27T05:57:49.157Z,33.00
2018-06-27T05:58:52.596Z,32.90
2018-06-27T05:59:55.950Z,32.90
2018-06-27T06:00:59.401Z,32.90
2018-06-27T06:02:02.898Z,32.90
2018-06-27T06:03:06.216Z,32.80
2018-06-27T06:04:09.641Z,32.90
2018-06-27T06:05:13.219Z,32.80
2018-06-27T06:06:16.544Z,32.80
2018-06-27T06:07:19.975Z,32.80
2018-06-27T06:08:23.349Z,32.70
2018-06-27T06:09:27.187Z,32.60
2018-06-27T06:10:30.905Z,33.20
2018-06-27T06:11:34.494Z,32.40
2018-06-27T06:12:37.880Z,32.40
2018-06-27T06:13:41.217Z,32.50
2018-06-27T06:14:44.917Z,32.40
2018-06-27T06:15:48.600Z,32.30
2018-06-27T06:18:10.306Z,32.40
2018-06-27T06:19:13.991Z,32.50
2018-06-27T06:20:17.350Z,32.60
2018-06-27T06:21:20.715Z,32.70
2018-06-27T06:22:24.174Z,32.60
2018-06-27T06:23:27.681Z,32.70
2018-06-27T06:24:36.279Z,32.60
2018-06-27T06:25:39.970Z,32.70
2018-06-27T06:26:43.337Z,32.60
2018-06-27T06:27:46.812Z,32.60
2018-06-27T06:28:50.268Z,32.60
2018-06-27T06:29:53.816Z,32.50
2018-06-27T06:30:57.302Z,32.50
2018-06-27T06:32:00.721Z,32.40
2018-06-27T06:33:04.272Z,32.40
2018-06-27T06:34:07.700Z,32.20
2018-06-27T06:35:11.297Z,32.20
2018-06-27T06:36:14.737Z,32.10
2018-06-27T06:37:18.545Z,32.20
2018-06-27T06:38:22.024Z,32.20
2018-06-27T06:39:25.725Z,32.20
2018-06-27T06:40:29.400Z,32.20
2018-06-27T06:41:32.802Z,32.10
2018-06-27T06:43:39.362Z,32.10
2018-06-27T06:44:42.797Z,32.20
2018-06-27T06:45:46.148Z,32.30
2018-06-27T06:46:49.917Z,32.20
2018-06-27T06:47:53.293Z,32.20
2018-06-27T06:48:56.950Z,32.50
2018-06-27T06:50:00.508Z,32.40
2018-06-27T06:51:04.046Z,32.30
2018-06-27T06:52:07.445Z,32.30
2018-06-27T06:53:10.748Z,32.20
2018-06-27T06:54:14.115Z,32.20
2018-06-27T06:55:17.616Z,32.10
2018-06-27T06:56:21.245Z,32.20
2018-06-27T06:57:24.590Z,32.20
2018-06-27T06:58:27.979Z,32.10
2018-06-27T06:59:31.398Z,32.10
2018-06-27T07:00:34.759Z,32.10
2018-06-27T07:02:41.308Z,32.20
2018-06-27T07:03:44.816Z,32.10
2018-06-27T07:04:48.367Z,32.20
2018-06-27T07:05:51.798Z,32.30
2018-06-27T07:06:55.149Z,32.00
2018-06-27T07:07:58.673Z,31.90
2018-06-27T07:09:02.208Z,31.90
2018-06-27T07:10:05.601Z,32.00
2018-06-27T07:11:09.184Z,32.00
2018-06-27T07:12:12.653Z,31.80
2018-06-27T07:13:16.598Z,32.00
2018-06-27T07:14:19.948Z,31.90
2018-06-27T07:15:23.554Z,31.90
2018-06-27T07:16:26.909Z,31.90
2018-06-27T07:17:30.329Z,31.90
2018-06-27T07:18:33.925Z,31.90
2018-06-27T07:19:37.297Z,31.90
2018-06-27T07:20:40.662Z,32.00
2018-06-27T07:21:44.029Z,32.00
2018-06-27T07:22:47.436Z,32.00
2018-06-27T07:23:50.758Z,32.00
2018-06-27T07:24:54.212Z,32.00
2018-06-27T07:25:57.665Z,32.00
2018-06-27T07:27:01.221Z,32.00
2018-06-27T07:28:04.628Z,32.60
2018-06-27T07:29:08.207Z,31.90
2018-06-27T07:30:11.677Z,32.10
2018-06-27T07:31:15.125Z,31.90
2018-06-27T07:32:19.200Z,31.90
2018-06-27T07:33:22.645Z,32.00
2018-06-27T07:34:26.038Z,31.90
2018-06-27T07:35:29.487Z,31.90
2018-06-27T07:36:32.953Z,31.90
2018-06-27T07:37:36.378Z,32.00
2018-06-27T07:38:40.070Z,31.90
2018-06-27T07:39:43.421Z,32.00
2018-06-27T07:40:46.941Z,31.90
2018-06-27T07:41:50.433Z,31.90
2018-06-27T07:42:54.026Z,31.80
2018-06-27T07:43:57.614Z,31.90
2018-06-27T07:45:00.949Z,31.80
2018-06-27T07:46:04.502Z,31.80
2018-06-27T07:47:08.252Z,31.80
2018-06-27T07:48:11.681Z,31.80
2018-06-27T07:49:15.228Z,31.80
2018-06-27T07:50:18.785Z,31.70
2018-06-27T07:51:22.096Z,31.70
2018-06-27T07:52:25.421Z,31.80
2018-06-27T07:53:28.980Z,31.90
2018-06-27T07:54:40.168Z,31.80
2018-06-27T07:55:43.621Z,31.80
2018-06-27T07:56:46.956Z,31.90
2018-06-27T07:57:50.288Z,31.80
2018-06-27T07:58:53.697Z,31.80
2018-06-27T07:59:57.072Z,32.00
2018-06-27T08:01:00.441Z,31.90
2018-06-27T08:02:04.187Z,31.80
2018-06-27T08:03:07.698Z,31.80
2018-06-27T08:04:11.350Z,31.80
2018-06-27T08:05:14.853Z,31.80
2018-06-27T08:06:18.316Z,31.80
2018-06-27T08:07:21.732Z,31.80
2018-06-27T08:08:25.096Z,31.80
2018-06-27T08:09:28.559Z,31.80
2018-06-27T08:11:35.074Z,32.40
2018-06-27T08:12:38.729Z,31.80
2018-06-27T08:13:42.066Z,31.80
2018-06-27T08:14:45.459Z,31.80
2018-06-27T08:15:49.023Z,31.50
2018-06-27T08:16:52.384Z,31.60
2018-06-27T08:17:55.901Z,31.70
2018-06-27T08:18:59.134Z,31.60
2018-06-27T08:21:05.545Z,31.50
2018-06-27T08:22:09.255Z,31.40
2018-06-27T08:23:12.909Z,31.20
2018-06-27T08:24:16.331Z,31.20
2018-06-27T08:25:19.910Z,31.10
2018-06-27T08:26:23.581Z,31.10
2018-06-27T08:27:26.794Z,30.80
2018-06-27T08:28:30.155Z,30.70
2018-06-27T08:29:33.753Z,30.60
2018-06-27T08:30:37.189Z,30.60
2018-06-27T08:31:40.632Z,30.60
2018-06-27T08:32:44.145Z,31.20
2018-06-27T08:33:47.568Z,30.60
2018-06-27T08:34:51.032Z,30.60
2018-06-27T08:35:54.520Z,30.70
2018-06-27T08:36:58.033Z,30.80
2018-06-27T08:38:01.420Z,30.80
2018-06-27T08:39:07.813Z,30.80
2018-06-27T08:40:11.292Z,30.90
2018-06-27T08:41:14.982Z,30.90
2018-06-27T08:42:18.605Z,31.00
2018-06-27T08:43:22.004Z,30.90
2018-06-27T08:44:25.502Z,30.80
2018-06-27T08:45:28.853Z,30.80
2018-06-27T08:46:32.245Z,30.80
2018-06-27T08:47:35.653Z,30.80
2018-06-27T08:48:39.129Z,30.80
2018-06-27T08:49:42.552Z,30.90
2018-06-27T08:50:45.882Z,30.90
2018-06-27T08:51:49.480Z,30.80
2018-06-27T08:52:52.921Z,30.80
2018-06-27T08:53:56.431Z,30.70
2018-06-27T08:54:59.943Z,30.60
2018-06-27T08:56:03.321Z,30.50
2018-06-27T08:57:06.669Z,30.50
2018-06-27T08:58:10.053Z,30.50
2018-06-27T08:59:13.438Z,30.30
2018-06-27T09:00:16.778Z,30.30
2018-06-27T09:01:20.561Z,30.40
2018-06-27T09:02:24.081Z,30.60
2018-06-27T09:03:27.513Z,30.50
2018-06-27T09:04:31.059Z,30.50
2018-06-27T09:05:34.536Z,30.50
2018-06-27T09:06:37.998Z,30.60
2018-06-27T09:07:41.377Z,30.50
2018-06-27T09:08:44.802Z,30.50
2018-06-27T09:09:48.242Z,30.50
2018-06-27T09:10:51.945Z,30.50
2018-06-27T09:11:55.347Z,30.60
2018-06-27T09:12:58.736Z,30.60
2018-06-27T09:14:02.314Z,30.70
2018-06-27T09:15:05.752Z,30.70
2018-06-27T09:16:09.092Z,30.70
2018-06-27T09:17:12.525Z,30.70
2018-06-27T09:19:19.046Z,30.60
2018-06-27T09:20:22.511Z,30.60
2018-06-27T09:21:25.938Z,30.60
2018-06-27T09:22:29.677Z,30.60
2018-06-27T09:23:33.047Z,30.80
2018-06-27T09:24:36.388Z,30.80
2018-06-27T09:25:39.966Z,30.70
2018-06-27T09:26:43.375Z,30.70
2018-06-27T09:27:47.082Z,30.80
2018-06-27T09:28:50.946Z,30.70
2018-06-27T09:29:54.796Z,30.60
2018-06-27T09:30:58.321Z,30.70
2018-06-27T09:32:01.989Z,30.70
2018-06-27T09:33:05.671Z,30.60
2018-06-27T09:34:09.131Z,30.80
2018-06-27T09:35:12.505Z,30.70
2018-06-27T09:36:15.877Z,30.80
2018-06-27T09:37:19.321Z,30.90
2018-06-27T09:39:25.838Z,30.90
2018-06-27T09:40:29.460Z,31.00
2018-06-27T09:41:32.836Z,30.90
2018-06-27T09:42:36.462Z,31.00
2018-06-27T09:43:39.921Z,31.00
2018-06-27T09:44:43.405Z,30.90
2018-06-27T09:45:46.967Z,30.90
2018-06-27T09:46:50.306Z,30.90
2018-06-27T09:47:53.809Z,31.00
2018-06-27T09:48:57.237Z,31.00
2018-06-27T09:50:00.876Z,31.00
2018-06-27T09:51:04.477Z,31.00
2018-06-27T09:52:07.848Z,31.00
2018-06-27T09:53:12.215Z,30.90
2018-06-27T09:54:15.604Z,30.90
2018-06-27T09:55:19.065Z,31.10
2018-06-27T09:56:23.049Z,30.90
2018-06-27T09:57:26.517Z,30.80
2018-06-27T09:58:29.974Z,31.00
2018-06-27T09:59:33.458Z,30.90
2018-06-27T10:00:40.343Z,30.80
2018-06-27T10:01:43.851Z,30.60
2018-06-27T10:02:47.790Z,30.80
2018-06-27T10:03:51.302Z,30.60
2018-06-27T10:04:54.765Z,30.50
2018-06-27T10:05:58.207Z,30.40
2018-06-27T10:07:01.634Z,30.50
2018-06-27T10:08:05.165Z,30.60
2018-06-27T10:09:09.618Z,30.60
2018-06-27T10:10:12.986Z,30.70
2018-06-27T10:11:16.314Z,30.80
2018-06-27T10:12:19.830Z,30.80
2018-06-27T10:13:23.231Z,30.80
2018-06-27T10:14:26.565Z,30.80
2018-06-27T10:15:30.020Z,30.70
2018-06-27T10:16:33.801Z,30.60
2018-06-27T10:17:37.189Z,30.50
2018-06-27T10:19:43.835Z,30.40
2018-06-27T10:20:47.333Z,30.30
2018-06-27T10:21:50.922Z,30.30
2018-06-27T10:22:54.281Z,30.20
2018-06-27T10:23:57.607Z,30.20
2018-06-27T10:25:01.021Z,30.30
2018-06-27T10:26:04.620Z,30.20
2018-06-27T10:27:08.149Z,30.20
2018-06-27T10:28:11.701Z,30.20
2018-06-27T10:29:15.169Z,30.40
2018-06-27T10:30:18.589Z,30.40
2018-06-27T10:31:21.990Z,30.40
2018-06-27T10:32:25.320Z,30.40
2018-06-27T10:33:28.712Z,30.40
2018-06-27T10:34:32.053Z,30.50
2018-06-27T10:35:35.628Z,30.50
2018-06-27T10:36:39.545Z,30.60
2018-06-27T10:37:42.956Z,30.60
2018-06-27T10:38:46.333Z,30.60
2018-06-27T10:39:49.852Z,30.70
2018-06-27T10:41:56.349Z,30.50
2018-06-27T10:42:59.777Z,30.60
2018-06-27T10:44:03.151Z,30.50
2018-06-27T10:45:06.580Z,30.50
2018-06-27T10:46:10.119Z,30.60
2018-06-27T10:47:13.678Z,30.60
2018-06-27T10:48:17.062Z,30.60
2018-06-27T10:49:20.446Z,30.60
2018-06-27T10:50:23.886Z,30.70
2018-06-27T10:51:27.360Z,30.60
2018-06-27T10:52:30.757Z,30.60
2018-06-27T10:53:34.169Z,30.70
2018-06-27T10:54:41.737Z,31.40
2018-06-27T10:55:45.208Z,30.60
2018-06-27T10:56:48.732Z,30.40
2018-06-27T10:57:52.389Z,30.50
2018-06-27T10:58:55.746Z,30.50
2018-06-27T10:59:59.181Z,30.40
2018-06-27T11:01:02.553Z,30.50
2018-06-27T11:02:05.901Z,30.50
2018-06-27T11:03:09.463Z,30.30
2018-06-27T11:04:12.999Z,30.10
2018-06-27T11:05:16.380Z,30.00
2018-06-27T11:06:20.058Z,30.00
2018-06-27T11:07:23.430Z,29.90
2018-06-27T11:08:26.780Z,30.00
2018-06-27T11:09:30.146Z,29.90
2018-06-27T11:10:33.635Z,29.80
2018-06-27T11:11:37.196Z,29.90
2018-06-27T11:12:40.576Z,29.80
2018-06-27T11:13:44.162Z,29.80
2018-06-27T11:14:47.727Z,29.80
2018-06-27T11:15:51.220Z,30.00
2018-06-27T11:16:55.037Z,29.90
2018-06-27T11:17:59.085Z,29.90
2018-06-27T11:19:02.451Z,29.90
2018-06-27T11:20:05.937Z,29.80
2018-06-27T11:21:09.349Z,29.90
2018-06-27T11:22:12.787Z,29.90
2018-06-27T11:23:16.323Z,29.90
2018-06-27T11:24:19.746Z,29.90
2018-06-27T11:25:23.151Z,29.80
2018-06-27T11:26:26.523Z,29.80
2018-06-27T11:27:29.984Z,29.90
2018-06-27T11:28:33.471Z,30.00
2018-06-27T11:29:36.805Z,30.50
2018-06-27T11:30:40.480Z,30.20
2018-06-27T11:31:43.993Z,30.10
2018-06-27T11:32:47.655Z,30.10
2018-06-27T11:33:50.983Z,30.10
2018-06-27T11:34:54.372Z,30.00
2018-06-27T11:35:58.048Z,30.00
2018-06-27T11:37:01.460Z,30.00
2018-06-27T11:38:05.342Z,30.10
2018-06-27T11:39:11.102Z,30.10
2018-06-27T11:40:14.894Z,30.10
2018-06-27T11:41:18.569Z,30.00
2018-06-27T11:42:22.139Z,30.00
2018-06-27T11:43:25.511Z,29.90
2018-06-27T11:44:29.884Z,29.90
2018-06-27T11:45:33.170Z,29.90
2018-06-27T11:46:37.259Z,29.90
2018-06-27T11:47:40.860Z,30.50
2018-06-27T11:49:48.565Z,29.80
2018-06-27T11:50:52.173Z,29.70
2018-06-27T11:51:55.982Z,29.70
2018-06-27T11:52:59.542Z,29.50
2018-06-27T11:54:03.196Z,29.50
2018-06-27T11:55:12.277Z,29.30
2018-06-27T11:56:18.633Z,29.10
2018-06-27T11:57:22.283Z,29.00
2018-06-27T11:58:25.936Z,28.80
2018-06-27T11:59:30.011Z,28.60
2018-06-27T12:00:33.423Z,28.30
2018-06-27T12:01:36.855Z,28.30
2018-06-27T12:02:40.898Z,27.70
2018-06-27T12:03:44.499Z,27.30
2018-06-27T12:04:48.018Z,27.40
2018-06-27T12:05:51.446Z,27.50
2018-06-27T12:07:58.433Z,27.40
2018-06-27T12:09:01.786Z,27.30
2018-06-27T12:10:05.505Z,27.50
2018-06-27T12:11:08.964Z,27.50
2018-06-27T12:12:12.356Z,27.70
2018-06-27T12:13:15.677Z,27.80
2018-06-27T12:14:19.041Z,27.90
2018-06-27T12:15:22.651Z,27.90
2018-06-27T12:16:27.056Z,28.00
2018-06-27T12:17:30.674Z,28.00
2018-06-27T12:18:35.308Z,27.80
2018-06-27T12:19:39.087Z,27.70
2018-06-27T12:20:42.532Z,27.50
2018-06-27T12:22:48.987Z,27.20
2018-06-27T12:23:52.524Z,27.20
2018-06-27T12:24:56.592Z,27.00
2018-06-27T12:26:00.454Z,27.10
2018-06-27T12:27:06.088Z,27.00
2018-06-27T12:28:09.437Z,26.90
2018-06-27T12:29:13.539Z,27.00
2018-06-27T12:30:23.230Z,27.00
2018-06-27T12:31:26.941Z,27.10
2018-06-27T12:32:30.462Z,27.10
2018-06-27T12:33:34.114Z,27.00
2018-06-27T12:34:38.358Z,27.00
2018-06-27T12:35:42.038Z,26.80
2018-06-27T12:36:45.722Z,26.60
2018-06-27T12:37:49.773Z,26.40
2018-06-27T12:38:53.972Z,26.20
2018-06-27T12:39:58.943Z,26.20
2018-06-27T12:41:02.613Z,26.00
2018-06-27T12:42:06.739Z,25.90
2018-06-27T12:43:10.293Z,25.90
2018-06-27T12:44:13.932Z,26.00
2018-06-27T12:45:17.466Z,26.00
2018-06-27T12:46:20.938Z,26.10
2018-06-27T12:47:24.593Z,26.10
2018-06-27T12:49:32.644Z,26.10
2018-06-27T12:50:36.213Z,25.60
2018-06-27T12:51:40.354Z,25.60
2018-06-27T12:52:43.682Z,25.70
2018-06-27T12:53:47.109Z,25.60
2018-06-27T12:54:54.161Z,25.40
2018-06-27T12:55:58.152Z,25.50
2018-06-27T12:57:01.635Z,25.50
2018-06-27T12:58:05.749Z,25.20
2018-06-27T12:59:09.495Z,25.10
2018-06-27T13:00:12.942Z,25.00
2018-06-27T13:01:16.573Z,25.00
2018-06-27T13:02:19.985Z,24.90
2018-06-27T13:03:23.663Z,24.90
2018-06-27T13:04:27.350Z,24.90
2018-06-27T13:05:31.283Z,24.90
2018-06-27T13:06:35.337Z,24.90
2018-06-27T13:07:39.183Z,24.80
2018-06-27T13:08:42.648Z,24.90
2018-06-27T13:09:46.011Z,24.90
2018-06-27T13:10:49.525Z,24.80
2018-06-27T13:11:52.898Z,24.80
2018-06-27T13:12:56.270Z,24.80
2018-06-27T13:13:59.933Z,24.80
2018-06-27T13:15:03.545Z,24.70
2018-06-27T13:16:07.354Z,24.60
2018-06-27T13:17:12.122Z,24.50
2018-06-27T13:18:15.581Z,24.40
2018-06-27T13:19:19.172Z,24.50
2018-06-27T13:20:22.915Z,24.20
2018-06-27T13:21:26.237Z,24.10
2018-06-27T13:22:30.189Z,24.00
2018-06-27T13:23:34.521Z,23.90
2018-06-27T13:24:37.977Z,23.90
2018-06-27T13:25:41.381Z,23.80
2018-06-27T13:26:44.845Z,23.90
2018-06-27T13:27:48.172Z,24.00
2018-06-27T13:28:51.495Z,24.10
2018-06-27T13:29:54.995Z,24.00
2018-06-27T13:30:58.333Z,24.20
2018-06-27T13:32:03.562Z,24.20
2018-06-27T13:33:07.316Z,24.00
2018-06-27T13:34:10.713Z,23.90
2018-06-27T13:35:14.282Z,23.90
2018-06-27T13:36:17.777Z,24.00
2018-06-27T13:37:21.408Z,24.00
2018-06-27T13:38:25.179Z,24.00
2018-06-27T13:39:28.646Z,24.50
2018-06-27T13:40:32.056Z,23.90
2018-06-27T13:41:36.917Z,24.00
2018-06-27T13:43:44.838Z,24.10
2018-06-27T13:44:49.581Z,23.90
2018-06-27T13:45:53.109Z,23.90
2018-06-27T13:46:56.445Z,23.80
2018-06-27T13:47:59.971Z,23.90
2018-06-27T13:49:03.508Z,23.70
2018-06-27T13:50:07.163Z,23.70
2018-06-27T13:51:10.712Z,23.60
2018-06-27T13:52:14.110Z,23.40
2018-06-27T13:53:17.909Z,23.40
2018-06-27T13:54:21.306Z,23.40
2018-06-27T13:55:24.792Z,23.20
2018-06-27T13:56:28.141Z,23.20
2018-06-27T13:57:31.574Z,23.30
2018-06-27T13:58:35.129Z,23.30
2018-06-27T13:59:38.836Z,23.20
2018-06-27T14:00:42.247Z,23.20
2018-06-27T14:01:45.731Z,23.10
2018-06-27T14:02:49.127Z,23.00